Aérodrome :
LOGIN :

S'inscrire | Disclaimer

   EN    FR    IT 

 










Légende :    VFR   VFR Marginal   IFR   IFR Intensif   IFR Très Intensif
Visi : 
Plafond : 
>= 8 km
>= 3000ft
5 à 8 km
1000 à 3000 ft
1500m à 5 km
500 à 1000 ft
800 à 1500m
200 à 500 ft
< 800m
< 200 ft
Symboles :   Orages  Brouillard  Fortes neiges  Fortes précipitations  Vent > 20 kt
SIGMETs :   Divers  Orages  Givrage  Turbulence  Onde Orograph.  Cendres Volcan.







- Altitude de l'aérodrome : 1300 ft
- Code IATA : LIG
- Voir les cartes d'approche


LFBL - Limoges

DERNIER METAR :
  • 131630Z AUTO 19012KT 6000 -RA OVC003/// ///TCU 07/07 Q1009 TEMPO 20018G30KT 2000 RA OVC002

METARs EXPIRÉS :
  • 131600Z AUTO 19013KT 5000 -RA BR OVC002 06/06 Q1010 TEMPO 20018G30KT 2000 RA
  • 131530Z AUTO 18012KT 6000 -DZ VV/// 06/06 Q1010 TEMPO 20018G30KT 2000 RA OVC002
  • 131500Z AUTO 18013KT 0400 0350 R21/0800U R03/0450N FG VV/// 05/05 Q1011 TEMPO 2000 RA OVC002
  • 131430Z AUTO 19013KT 0300 R21/0550N R03/0350N FG VV/// 05/05 Q1011 TEMPO 2000 RA OVC002
  • 131400Z AUTO 20013KT 0300 R21/0450N R03/0375N FG VV/// 05/05 Q1012 NOSIG

TAF AMD TAF LFBL
Valide du 13 à 13h jusqu'au 14 à 12h UTC


131342Z 1313/1412 19012KT 9999 OVC008
TEMPO 1313/1316 3000 -RA OVC002
PROB30
TEMPO 1313/1316 0300 FG VV///
BECMG 1316/1318 -RA OVC007
TEMPO 1316/1321 2000 RA OVC002
PROB40
TEMPO 1317/1319 20018G30KT
BECMG 1319/1321 26015G25KT
TEMPO 1319/1322 27020G33KT
BECMG 1321/1323 NSW BKN017 BKN040
TEMPO 1400/1412 RA BKN008
PROB40
TEMPO 1410/1412 26017G30KT
ATIS : +33 5 55 48 40 37
Pas de NOTAMs connus pour ce terrain.
1 SIGMET publié pour la FIR Bordeaux (LFBB) :
 
Turbulence forte
LFBB SIGMET 1 VALID 131600/132000 LFPW
LFBB BORDEAUX FIR/UIR SEV TURB FCST WI N4445 W00145 - N4630 W00130 - N4630 W00015 - N4715 W00015 - N4715 E00200 - N4700 E00215 - N4545 E00130 - N4445 W00145 SFC/FL050 MOV E 40KT INTSF=



MET'MAP, la Météo Aéronautique d'un coup d'oeil ! - Copyright ORBIFLY Décembre 2007 - Disclaimer

ORBIFLY MET'MAP TEAM :

Programmation & Développement : Alexandra Zaïnal
Conception & Développement : Baudouin d'Aumeries
Co-Programmation & Développement : Marc-Olivier Méhu
Soutien technique & logistique : Manuel Goepfert

Contact : metmap@orbifly.com




SOURCES & CREDITS :

   NOAA